sensor_id;sensor_type;location;lat;lon;timestamp;temperature;humidity
20384;DHT22;46458;50.966;7.002;2022-08-04T00:01:23;25.80;99.90
20384;DHT22;46458;50.966;7.002;2022-08-04T00:04:00;25.80;99.90
20384;DHT22;46458;50.966;7.002;2022-08-04T00:06:38;25.70;99.90
20384;DHT22;46458;50.966;7.002;2022-08-04T00:09:16;25.70;99.90
20384;DHT22;46458;50.966;7.002;2022-08-04T00:11:52;25.70;99.90
20384;DHT22;46458;50.966;7.002;2022-08-04T00:14:30;25.70;99.90
20384;DHT22;46458;50.966;7.002;2022-08-04T00:17:04;25.70;99.90
20384;DHT22;46458;50.966;7.002;2022-08-04T00:19:39;25.70;99.90
20384;DHT22;46458;50.966;7.002;2022-08-04T00:22:10;25.70;99.90
20384;DHT22;46458;50.966;7.002;2022-08-04T00:24:39;25.70;99.90
20384;DHT22;46458;50.966;7.002;2022-08-04T00:27:12;25.70;99.90
20384;DHT22;46458;50.966;7.002;2022-08-04T00:29:49;26.30;99.90
20384;DHT22;46458;50.966;7.002;2022-08-04T00:32:18;25.60;99.90
20384;DHT22;46458;50.966;7.002;2022-08-04T00:34:48;25.60;99.90
20384;DHT22;46458;50.966;7.002;2022-08-04T00:37:21;25.60;99.90
20384;DHT22;46458;50.966;7.002;2022-08-04T00:39:53;25.60;99.90
20384;DHT22;46458;50.966;7.002;2022-08-04T00:42:33;25.60;99.90
20384;DHT22;46458;50.966;7.002;2022-08-04T00:45:33;25.60;99.90
20384;DHT22;46458;50.966;7.002;2022-08-04T00:48:14;25.60;99.90
20384;DHT22;46458;50.966;7.002;2022-08-04T00:50:49;25.50;99.90
20384;DHT22;46458;50.966;7.002;2022-08-04T00:53:29;25.50;99.90
20384;DHT22;46458;50.966;7.002;2022-08-04T00:56:10;25.50;99.90
20384;DHT22;46458;50.966;7.002;2022-08-04T00:58:54;25.40;99.90
20384;DHT22;46458;50.966;7.002;2022-08-04T01:01:43;25.40;99.90
20384;DHT22;46458;50.966;7.002;2022-08-04T01:04:31;25.40;99.90
20384;DHT22;46458;50.966;7.002;2022-08-04T01:07:18;25.40;99.90
20384;DHT22;46458;50.966;7.002;2022-08-04T01:09:58;25.30;99.90
20384;DHT22;46458;50.966;7.002;2022-08-04T01:12:47;25.30;99.90
20384;DHT22;46458;50.966;7.002;2022-08-04T01:15:29;25.30;99.90
20384;DHT22;46458;50.966;7.002;2022-08-04T01:18:11;25.20;99.90
20384;DHT22;46458;50.966;7.002;2022-08-04T01:21:03;25.20;99.90
20384;DHT22;46458;50.966;7.002;2022-08-04T01:24:04;25.20;99.90
20384;DHT22;46458;50.966;7.002;2022-08-04T01:26:43;25.20;99.90
20384;DHT22;46458;50.966;7.002;2022-08-04T01:29:23;25.20;99.90
20384;DHT22;46458;50.966;7.002;2022-08-04T01:32:03;25.20;99.90
20384;DHT22;46458;50.966;7.002;2022-08-04T01:34:35;25.20;99.90
20384;DHT22;46458;50.966;7.002;2022-08-04T01:37:22;25.10;99.90
20384;DHT22;46458;50.966;7.002;2022-08-04T01:40:00;25.10;99.90
20384;DHT22;46458;50.966;7.002;2022-08-04T01:42:32;25.10;99.90
20384;DHT22;46458;50.966;7.002;2022-08-04T01:45:08;25.10;99.90
20384;DHT22;46458;50.966;7.002;2022-08-04T01:47:41;25.10;99.90
20384;DHT22;46458;50.966;7.002;2022-08-04T01:50:12;25.10;99.90
20384;DHT22;46458;50.966;7.002;2022-08-04T01:52:45;25.10;99.90
20384;DHT22;46458;50.966;7.002;2022-08-04T01:55:17;25.00;99.90
20384;DHT22;46458;50.966;7.002;2022-08-04T01:57:49;25.00;99.90
20384;DHT22;46458;50.966;7.002;2022-08-04T02:00:22;25.00;99.90
20384;DHT22;46458;50.966;7.002;2022-08-04T02:02:53;25.00;99.90
20384;DHT22;46458;50.966;7.002;2022-08-04T02:05:26;24.90;99.90
20384;DHT22;46458;50.966;7.002;2022-08-04T02:08:05;24.90;99.90
20384;DHT22;46458;50.966;7.002;2022-08-04T02:10:49;24.90;99.90
20384;DHT22;46458;50.966;7.002;2022-08-04T02:13:25;24.80;99.90
20384;DHT22;46458;50.966;7.002;2022-08-04T02:16:01;24.80;99.90
20384;DHT22;46458;50.966;7.002;2022-08-04T02:18:35;24.80;99.90
20384;DHT22;46458;50.966;7.002;2022-08-04T02:21:07;24.80;99.90
20384;DHT22;46458;50.966;7.002;2022-08-04T02:23:38;24.70;99.90
20384;DHT22;46458;50.966;7.002;2022-08-04T02:26:12;24.70;99.90
20384;DHT22;46458;50.966;7.002;2022-08-04T02:28:47;24.70;99.90
20384;DHT22;46458;50.966;7.002;2022-08-04T02:31:26;24.70;99.90
20384;DHT22;46458;50.966;7.002;2022-08-04T02:34:07;24.60;99.90
20384;DHT22;46458;50.966;7.002;2022-08-04T02:36:38;24.60;99.90
20384;DHT22;46458;50.966;7.002;2022-08-04T02:39:08;24.60;99.90
20384;DHT22;46458;50.966;7.002;2022-08-04T02:41:39;24.60;99.90
20384;DHT22;46458;50.966;7.002;2022-08-04T02:44:09;24.50;99.90
20384;DHT22;46458;50.966;7.002;2022-08-04T02:46:41;24.50;99.90
20384;DHT22;46458;50.966;7.002;2022-08-04T02:49:10;24.50;99.90
20384;DHT22;46458;50.966;7.002;2022-08-04T02:51:42;24.40;99.90
20384;DHT22;46458;50.966;7.002;2022-08-04T02:54:15;24.40;99.90
20384;DHT22;46458;50.966;7.002;2022-08-04T02:56:50;24.40;99.90
20384;DHT22;46458;50.966;7.002;2022-08-04T02:59:26;24.30;99.90
20384;DHT22;46458;50.966;7.002;2022-08-04T03:02:00;24.40;99.90
20384;DHT22;46458;50.966;7.002;2022-08-04T03:04:39;24.30;99.90
20384;DHT22;46458;50.966;7.002;2022-08-04T03:07:33;24.30;99.90
20384;DHT22;46458;50.966;7.002;2022-08-04T03:10:32;24.30;99.90
20384;DHT22;46458;50.966;7.002;2022-08-04T03:16:39;24.20;99.90
20384;DHT22;46458;50.966;7.002;2022-08-04T03:22:58;24.10;99.90
20384;DHT22;46458;50.966;7.002;2022-08-04T03:29:18;24.00;99.90
20384;DHT22;46458;50.966;7.002;2022-08-04T03:32:27;24.00;99.90
20384;DHT22;46458;50.966;7.002;2022-08-04T03:35:09;24.00;99.90
20384;DHT22;46458;50.966;7.002;2022-08-04T03:38:06;24.00;99.90
20384;DHT22;46458;50.966;7.002;2022-08-04T03:46:50;24.00;99.90
20384;DHT22;46458;50.966;7.002;2022-08-04T03:50:01;24.00;99.90
20384;DHT22;46458;50.966;7.002;2022-08-04T03:53:02;23.90;99.90
20384;DHT22;46458;50.966;7.002;2022-08-04T03:58:51;23.90;99.90
20384;DHT22;46458;50.966;7.002;2022-08-04T04:01:55;23.90;99.90
20384;DHT22;46458;50.966;7.002;2022-08-04T04:04:45;23.90;99.90
20384;DHT22;46458;50.966;7.002;2022-08-04T04:07:57;23.90;99.90
20384;DHT22;46458;50.966;7.002;2022-08-04T04:10:51;23.80;99.90
20384;DHT22;46458;50.966;7.002;2022-08-04T04:13:43;23.80;99.90
20384;DHT22;46458;50.966;7.002;2022-08-04T04:16:36;23.80;99.90
20384;DHT22;46458;50.966;7.002;2022-08-04T04:19:33;23.80;99.90
20384;DHT22;46458;50.966;7.002;2022-08-04T04:22:20;23.80;99.90
20384;DHT22;46458;50.966;7.002;2022-08-04T04:25:10;23.80;99.90
20384;DHT22;46458;50.966;7.002;2022-08-04T04:27:59;23.80;99.90
20384;DHT22;46458;50.966;7.002;2022-08-04T04:30:40;23.80;99.90
20384;DHT22;46458;50.966;7.002;2022-08-04T04:33:28;23.80;99.90
20384;DHT22;46458;50.966;7.002;2022-08-04T04:36:05;23.80;99.90
20384;DHT22;46458;50.966;7.002;2022-08-04T04:39:00;23.80;99.90
20384;DHT22;46458;50.966;7.002;2022-08-04T04:41:36;23.80;99.90
20384;DHT22;46458;50.966;7.002;2022-08-04T04:44:35;23.80;99.90
20384;DHT22;46458;50.966;7.002;2022-08-04T04:47:17;23.80;99.90
20384;DHT22;46458;50.966;7.002;2022-08-04T04:49:56;23.80;99.90
20384;DHT22;46458;50.966;7.002;2022-08-04T04:52:33;23.80;99.90
20384;DHT22;46458;50.966;7.002;2022-08-04T04:55:10;23.80;99.90
20384;DHT22;46458;50.966;7.002;2022-08-04T04:57:44;23.80;99.90
20384;DHT22;46458;50.966;7.002;2022-08-04T05:00:17;23.80;99.90
20384;DHT22;46458;50.966;7.002;2022-08-04T05:03:08;23.80;99.90
20384;DHT22;46458;50.966;7.002;2022-08-04T05:05:56;23.80;99.90
20384;DHT22;46458;50.966;7.002;2022-08-04T05:11:54;23.90;99.90
20384;DHT22;46458;50.966;7.002;2022-08-04T05:14:32;23.80;99.90
20384;DHT22;46458;50.966;7.002;2022-08-04T05:17:13;23.90;99.90
20384;DHT22;46458;50.966;7.002;2022-08-04T05:19:51;23.90;99.90
20384;DHT22;46458;50.966;7.002;2022-08-04T05:22:24;23.90;99.90
20384;DHT22;46458;50.966;7.002;2022-08-04T05:25:02;23.90;99.90
20384;DHT22;46458;50.966;7.002;2022-08-04T05:27:37;23.90;99.90
20384;DHT22;46458;50.966;7.002;2022-08-04T05:30:08;23.90;99.90
20384;DHT22;46458;50.966;7.002;2022-08-04T05:32:45;24.00;99.90
20384;DHT22;46458;50.966;7.002;2022-08-04T05:35:20;24.00;99.90
20384;DHT22;46458;50.966;7.002;2022-08-04T05:37:53;24.10;99.90
20384;DHT22;46458;50.966;7.002;2022-08-04T05:40:23;24.10;99.90
20384;DHT22;46458;50.966;7.002;2022-08-04T05:42:54;24.10;99.90
20384;DHT22;46458;50.966;7.002;2022-08-04T05:45:24;24.10;99.90
20384;DHT22;46458;50.966;7.002;2022-08-04T05:47:57;24.20;99.90
20384;DHT22;46458;50.966;7.002;2022-08-04T05:50:26;24.20;99.90
20384;DHT22;46458;50.966;7.002;2022-08-04T05:52:58;24.20;99.90
20384;DHT22;46458;50.966;7.002;2022-08-04T05:55:29;24.20;99.90
20384;DHT22;46458;50.966;7.002;2022-08-04T05:57:58;24.20;99.90
20384;DHT22;46458;50.966;7.002;2022-08-04T06:00:29;24.30;99.90
20384;DHT22;46458;50.966;7.002;2022-08-04T06:03:05;24.30;99.90
20384;DHT22;46458;50.966;7.002;2022-08-04T06:05:34;24.40;99.90
20384;DHT22;46458;50.966;7.002;2022-08-04T06:08:04;24.40;99.90
20384;DHT22;46458;50.966;7.002;2022-08-04T06:10:33;24.50;99.90
20384;DHT22;46458;50.966;7.002;2022-08-04T06:13:08;24.60;99.90
20384;DHT22;46458;50.966;7.002;2022-08-04T06:15:40;24.60;99.90
20384;DHT22;46458;50.966;7.002;2022-08-04T06:18:13;24.70;99.90
20384;DHT22;46458;50.966;7.002;2022-08-04T06:20:44;24.70;99.90
20384;DHT22;46458;50.966;7.002;2022-08-04T06:23:18;24.80;99.90
20384;DHT22;46458;50.966;7.002;2022-08-04T06:25:50;24.90;99.90
20384;DHT22;46458;50.966;7.002;2022-08-04T06:28:21;24.90;99.90
20384;DHT22;46458;50.966;7.002;2022-08-04T06:30:51;25.00;99.90
20384;DHT22;46458;50.966;7.002;2022-08-04T06:33:23;25.10;99.90
20384;DHT22;46458;50.966;7.002;2022-08-04T06:36:00;25.10;99.90
20384;DHT22;46458;50.966;7.002;2022-08-04T06:38:33;25.20;99.90
20384;DHT22;46458;50.966;7.002;2022-08-04T06:41:03;25.20;99.90
20384;DHT22;46458;50.966;7.002;2022-08-04T06:43:35;25.20;99.90
20384;DHT22;46458;50.966;7.002;2022-08-04T06:46:05;25.30;99.90
20384;DHT22;46458;50.966;7.002;2022-08-04T06:48:38;25.30;99.90
20384;DHT22;46458;50.966;7.002;2022-08-04T06:51:08;25.40;99.90
20384;DHT22;46458;50.966;7.002;2022-08-04T06:53:39;25.40;99.90
20384;DHT22;46458;50.966;7.002;2022-08-04T06:56:08;25.40;99.90
20384;DHT22;46458;50.966;7.002;2022-08-04T06:58:38;25.50;99.90
20384;DHT22;46458;50.966;7.002;2022-08-04T07:01:08;25.60;99.90
20384;DHT22;46458;50.966;7.002;2022-08-04T07:03:40;25.60;99.90
20384;DHT22;46458;50.966;7.002;2022-08-04T07:06:10;25.60;99.90
20384;DHT22;46458;50.966;7.002;2022-08-04T07:08:43;25.70;99.90
20384;DHT22;46458;50.966;7.002;2022-08-04T07:11:16;25.80;99.90
20384;DHT22;46458;50.966;7.002;2022-08-04T07:13:48;25.80;99.90
20384;DHT22;46458;50.966;7.002;2022-08-04T07:16:17;25.90;99.90
20384;DHT22;46458;50.966;7.002;2022-08-04T07:18:50;25.90;99.90
20384;DHT22;46458;50.966;7.002;2022-08-04T07:21:20;25.90;99.90
20384;DHT22;46458;50.966;7.002;2022-08-04T07:23:52;26.00;99.90
20384;DHT22;46458;50.966;7.002;2022-08-04T07:26:26;26.00;99.90
20384;DHT22;46458;50.966;7.002;2022-08-04T07:28:55;26.10;99.90
20384;DHT22;46458;50.966;7.002;2022-08-04T07:31:27;26.20;99.90
20384;DHT22;46458;50.966;7.002;2022-08-04T07:34:00;26.20;99.90
20384;DHT22;46458;50.966;7.002;2022-08-04T07:36:38;26.30;99.90
20384;DHT22;46458;50.966;7.002;2022-08-04T07:39:07;26.40;99.90
20384;DHT22;46458;50.966;7.002;2022-08-04T07:41:36;26.40;99.90
20384;DHT22;46458;50.966;7.002;2022-08-04T07:44:06;26.50;99.90
20384;DHT22;46458;50.966;7.002;2022-08-04T07:46:41;26.50;99.90
20384;DHT22;46458;50.966;7.002;2022-08-04T07:49:12;26.60;99.90
20384;DHT22;46458;50.966;7.002;2022-08-04T07:51:42;26.60;99.90
20384;DHT22;46458;50.966;7.002;2022-08-04T07:54:12;26.70;99.90
20384;DHT22;46458;50.966;7.002;2022-08-04T07:56:44;26.80;99.90
20384;DHT22;46458;50.966;7.002;2022-08-04T07:59:14;26.90;99.90
20384;DHT22;46458;50.966;7.002;2022-08-04T08:01:46;27.00;99.90
20384;DHT22;46458;50.966;7.002;2022-08-04T08:04:18;27.00;99.90
20384;DHT22;46458;50.966;7.002;2022-08-04T08:06:47;27.00;99.90
20384;DHT22;46458;50.966;7.002;2022-08-04T08:09:17;27.10;99.90
20384;DHT22;46458;50.966;7.002;2022-08-04T08:11:49;27.20;99.90
20384;DHT22;46458;50.966;7.002;2022-08-04T08:14:19;27.30;99.90
20384;DHT22;46458;50.966;7.002;2022-08-04T08:16:48;27.40;99.90
20384;DHT22;46458;50.966;7.002;2022-08-04T08:19:19;27.50;99.90
20384;DHT22;46458;50.966;7.002;2022-08-04T08:21:49;27.50;99.90
20384;DHT22;46458;50.966;7.002;2022-08-04T08:24:18;27.60;99.90
20384;DHT22;46458;50.966;7.002;2022-08-04T08:26:49;27.70;99.90
20384;DHT22;46458;50.966;7.002;2022-08-04T08:29:22;27.80;99.90
20384;DHT22;46458;50.966;7.002;2022-08-04T08:31:51;27.90;99.90
20384;DHT22;46458;50.966;7.002;2022-08-04T08:34:26;28.10;99.90
20384;DHT22;46458;50.966;7.002;2022-08-04T08:37:00;28.10;99.90
20384;DHT22;46458;50.966;7.002;2022-08-04T08:39:33;28.20;99.90
20384;DHT22;46458;50.966;7.002;2022-08-04T08:42:18;28.20;99.90
20384;DHT22;46458;50.966;7.002;2022-08-04T08:48:16;28.50;99.90
20384;DHT22;46458;50.966;7.002;2022-08-04T08:51:07;28.70;99.90
20384;DHT22;46458;50.966;7.002;2022-08-04T08:56:59;28.90;99.90
20384;DHT22;46458;50.966;7.002;2022-08-04T08:59:49;29.00;99.90
20384;DHT22;46458;50.966;7.002;2022-08-04T09:05:27;29.10;99.90
20384;DHT22;46458;50.966;7.002;2022-08-04T09:08:25;29.40;99.90
20384;DHT22;46458;50.966;7.002;2022-08-04T09:11:07;29.50;99.90
20384;DHT22;46458;50.966;7.002;2022-08-04T09:13:42;29.70;99.90
20384;DHT22;46458;50.966;7.002;2022-08-04T09:16:16;30.00;99.90
20384;DHT22;46458;50.966;7.002;2022-08-04T09:18:53;30.20;99.90
20384;DHT22;46458;50.966;7.002;2022-08-04T09:21:31;30.60;99.90
20384;DHT22;46458;50.966;7.002;2022-08-04T09:24:08;30.80;99.90
20384;DHT22;46458;50.966;7.002;2022-08-04T09:26:43;30.90;99.90
20384;DHT22;46458;50.966;7.002;2022-08-04T09:29:18;31.10;99.90
20384;DHT22;46458;50.966;7.002;2022-08-04T09:31:53;31.30;99.90
20384;DHT22;46458;50.966;7.002;2022-08-04T09:34:33;31.90;99.40
20384;DHT22;46458;50.966;7.002;2022-08-04T09:37:11;32.10;98.20
20384;DHT22;46458;50.966;7.002;2022-08-04T09:39:52;32.00;97.80
20384;DHT22;46458;50.966;7.002;2022-08-04T09:42:31;33.60;96.90
20384;DHT22;46458;50.966;7.002;2022-08-04T09:45:09;37.70;93.60
20384;DHT22;46458;50.966;7.002;2022-08-04T09:47:48;42.60;84.40
20384;DHT22;46458;50.966;7.002;2022-08-04T09:50:32;46.20;76.10
20384;DHT22;46458;50.966;7.002;2022-08-04T09:53:10;48.50;68.30
20384;DHT22;46458;50.966;7.002;2022-08-04T09:55:50;49.10;64.40
20384;DHT22;46458;50.966;7.002;2022-08-04T09:58:27;46.70;63.60
20384;DHT22;46458;50.966;7.002;2022-08-04T10:01:10;47.50;63.00
20384;DHT22;46458;50.966;7.002;2022-08-04T10:03:47;50.80;59.80
20384;DHT22;46458;50.966;7.002;2022-08-04T10:06:38;53.40;57.30
20384;DHT22;46458;50.966;7.002;2022-08-04T10:09:27;52.20;55.60
20384;DHT22;46458;50.966;7.002;2022-08-04T10:12:10;49.80;56.10
20384;DHT22;46458;50.966;7.002;2022-08-04T10:14:52;50.40;54.90
20384;DHT22;46458;50.966;7.002;2022-08-04T10:17:42;48.30;59.30
20384;DHT22;46458;50.966;7.002;2022-08-04T10:20:32;45.50;64.30
20384;DHT22;46458;50.966;7.002;2022-08-04T10:23:11;42.90;68.60
20384;DHT22;46458;50.966;7.002;2022-08-04T10:25:54;40.50;72.30
20384;DHT22;46458;50.966;7.002;2022-08-04T10:28:36;38.90;74.20
20384;DHT22;46458;50.966;7.002;2022-08-04T10:31:13;37.70;75.50
20384;DHT22;46458;50.966;7.002;2022-08-04T10:33:50;36.70;77.50
20384;DHT22;46458;50.966;7.002;2022-08-04T10:36:22;36.00;79.10
20384;DHT22;46458;50.966;7.002;2022-08-04T10:38:58;35.30;79.90
20384;DHT22;46458;50.966;7.002;2022-08-04T10:41:33;34.80;81.10
20384;DHT22;46458;50.966;7.002;2022-08-04T10:44:27;34.40;82.30
20384;DHT22;46458;50.966;7.002;2022-08-04T10:47:00;34.30;82.90
20384;DHT22;46458;50.966;7.002;2022-08-04T10:49:35;33.90;83.90
20384;DHT22;46458;50.966;7.002;2022-08-04T10:52:16;33.70;85.40
20384;DHT22;46458;50.966;7.002;2022-08-04T10:54:52;33.70;86.90
20384;DHT22;46458;50.966;7.002;2022-08-04T10:57:27;33.50;86.50
20384;DHT22;46458;50.966;7.002;2022-08-04T11:00:03;33.30;87.10
20384;DHT22;46458;50.966;7.002;2022-08-04T11:02:38;33.30;86.50
20384;DHT22;46458;50.966;7.002;2022-08-04T11:05:14;33.40;87.80
20384;DHT22;46458;50.966;7.002;2022-08-04T11:07:50;33.40;87.30
20384;DHT22;46458;50.966;7.002;2022-08-04T11:10:21;33.50;87.10
20384;DHT22;46458;50.966;7.002;2022-08-04T11:12:54;33.40;86.70
20384;DHT22;46458;50.966;7.002;2022-08-04T11:15:30;33.40;86.10
20384;DHT22;46458;50.966;7.002;2022-08-04T11:18:04;33.50;86.30
20384;DHT22;46458;50.966;7.002;2022-08-04T11:20:37;33.30;87.50
20384;DHT22;46458;50.966;7.002;2022-08-04T11:23:13;33.30;88.20
20384;DHT22;46458;50.966;7.002;2022-08-04T11:25:50;33.20;88.40
20384;DHT22;46458;50.966;7.002;2022-08-04T11:28:35;33.20;88.80
20384;DHT22;46458;50.966;7.002;2022-08-04T11:31:11;33.20;89.40
20384;DHT22;46458;50.966;7.002;2022-08-04T11:33:48;33.20;89.80
20384;DHT22;46458;50.966;7.002;2022-08-04T11:36:28;33.10;90.10
20384;DHT22;46458;50.966;7.002;2022-08-04T11:39:05;33.10;90.40
20384;DHT22;46458;50.966;7.002;2022-08-04T11:41:47;33.00;90.40
20384;DHT22;46458;50.966;7.002;2022-08-04T11:44:25;32.70;90.50
20384;DHT22;46458;50.966;7.002;2022-08-04T11:47:07;32.70;90.90
20384;DHT22;46458;50.966;7.002;2022-08-04T11:49:40;32.60;90.70
20384;DHT22;46458;50.966;7.002;2022-08-04T11:52:12;32.60;91.70
20384;DHT22;46458;50.966;7.002;2022-08-04T11:54:46;32.60;91.80
20384;DHT22;46458;50.966;7.002;2022-08-04T11:57:23;32.50;91.90
20384;DHT22;46458;50.966;7.002;2022-08-04T11:59:54;32.60;91.90
20384;DHT22;46458;50.966;7.002;2022-08-04T12:02:45;32.40;92.20
20384;DHT22;46458;50.966;7.002;2022-08-04T12:05:26;32.20;92.40
20384;DHT22;46458;50.966;7.002;2022-08-04T12:08:10;32.20;92.10
20384;DHT22;46458;50.966;7.002;2022-08-04T12:10:49;32.00;92.80
20384;DHT22;46458;50.966;7.002;2022-08-04T12:13:26;32.00;93.10
20384;DHT22;46458;50.966;7.002;2022-08-04T12:16:01;31.80;93.00
20384;DHT22;46458;50.966;7.002;2022-08-04T12:18:37;31.70;93.30
20384;DHT22;46458;50.966;7.002;2022-08-04T12:21:11;31.80;93.50
20384;DHT22;46458;50.966;7.002;2022-08-04T12:23:43;31.90;93.80
20384;DHT22;46458;50.966;7.002;2022-08-04T12:26:17;31.80;93.70
20384;DHT22;46458;50.966;7.002;2022-08-04T12:28:50;31.70;93.80
20384;DHT22;46458;50.966;7.002;2022-08-04T12:31:26;31.50;94.00
20384;DHT22;46458;50.966;7.002;2022-08-04T12:34:00;31.60;94.10
20384;DHT22;46458;50.966;7.002;2022-08-04T12:36:38;31.60;94.20
20384;DHT22;46458;50.966;7.002;2022-08-04T12:39:11;31.50;94.10
20384;DHT22;46458;50.966;7.002;2022-08-04T12:41:51;31.40;94.30
20384;DHT22;46458;50.966;7.002;2022-08-04T12:44:24;30.60;93.40
20384;DHT22;46458;50.966;7.002;2022-08-04T12:47:01;31.20;94.50
20384;DHT22;46458;50.966;7.002;2022-08-04T12:49:34;31.20;95.10
20384;DHT22;46458;50.966;7.002;2022-08-04T12:52:06;31.10;95.30
20384;DHT22;46458;50.966;7.002;2022-08-04T12:54:37;31.10;95.90
20384;DHT22;46458;50.966;7.002;2022-08-04T12:57:16;31.10;96.30
20384;DHT22;46458;50.966;7.002;2022-08-04T12:59:46;31.20;96.90
20384;DHT22;46458;50.966;7.002;2022-08-04T13:02:17;31.10;96.70
20384;DHT22;46458;50.966;7.002;2022-08-04T13:04:54;31.20;96.90
20384;DHT22;46458;50.966;7.002;2022-08-04T13:07:27;30.70;96.80
20384;DHT22;46458;50.966;7.002;2022-08-04T13:10:10;31.40;97.30
20384;DHT22;46458;50.966;7.002;2022-08-04T13:12:41;31.40;97.30
20384;DHT22;46458;50.966;7.002;2022-08-04T13:15:15;31.30;97.30
20384;DHT22;46458;50.966;7.002;2022-08-04T13:17:53;31.30;96.70
20384;DHT22;46458;50.966;7.002;2022-08-04T13:20:28;31.20;95.30
20384;DHT22;46458;50.966;7.002;2022-08-04T13:23:05;31.30;95.80
20384;DHT22;46458;50.966;7.002;2022-08-04T13:25:45;31.30;95.80
20384;DHT22;46458;50.966;7.002;2022-08-04T13:28:19;31.50;95.90
20384;DHT22;46458;50.966;7.002;2022-08-04T13:30:55;31.60;96.40
20384;DHT22;46458;50.966;7.002;2022-08-04T13:33:30;31.70;96.30
20384;DHT22;46458;50.966;7.002;2022-08-04T13:36:03;31.70;96.20
20384;DHT22;46458;50.966;7.002;2022-08-04T13:38:34;31.70;96.10
20384;DHT22;46458;50.966;7.002;2022-08-04T13:41:06;31.60;96.50
20384;DHT22;46458;50.966;7.002;2022-08-04T13:43:41;31.40;96.30
20384;DHT22;46458;50.966;7.002;2022-08-04T13:46:17;31.60;96.70
20384;DHT22;46458;50.966;7.002;2022-08-04T13:48:50;31.60;96.30
20384;DHT22;46458;50.966;7.002;2022-08-04T13:51:25;31.60;95.60
20384;DHT22;46458;50.966;7.002;2022-08-04T13:53:59;31.80;96.60
20384;DHT22;46458;50.966;7.002;2022-08-04T13:56:37;31.90;96.40
20384;DHT22;46458;50.966;7.002;2022-08-04T13:59:10;32.00;96.30
20384;DHT22;46458;50.966;7.002;2022-08-04T14:01:44;31.80;96.10
20384;DHT22;46458;50.966;7.002;2022-08-04T14:04:17;32.00;96.60
20384;DHT22;46458;50.966;7.002;2022-08-04T14:07:01;32.00;97.10
20384;DHT22;46458;50.966;7.002;2022-08-04T14:09:31;32.10;97.20
20384;DHT22;46458;50.966;7.002;2022-08-04T14:12:06;32.00;97.20
20384;DHT22;46458;50.966;7.002;2022-08-04T14:14:45;32.00;97.20
20384;DHT22;46458;50.966;7.002;2022-08-04T14:17:16;31.90;97.30
20384;DHT22;46458;50.966;7.002;2022-08-04T14:19:54;32.00;97.50
20384;DHT22;46458;50.966;7.002;2022-08-04T14:22:34;32.10;97.40
20384;DHT22;46458;50.966;7.002;2022-08-04T14:25:08;31.90;97.20
20384;DHT22;46458;50.966;7.002;2022-08-04T14:27:43;31.90;96.70
20384;DHT22;46458;50.966;7.002;2022-08-04T14:30:26;31.80;97.20
20384;DHT22;46458;50.966;7.002;2022-08-04T14:33:02;31.70;97.60
20384;DHT22;46458;50.966;7.002;2022-08-04T14:35:32;31.90;97.90
20384;DHT22;46458;50.966;7.002;2022-08-04T14:38:06;31.80;97.70
20384;DHT22;46458;50.966;7.002;2022-08-04T14:40:36;31.90;97.90
20384;DHT22;46458;50.966;7.002;2022-08-04T14:43:07;32.00;98.00
20384;DHT22;46458;50.966;7.002;2022-08-04T14:45:39;32.20;98.00
20384;DHT22;46458;50.966;7.002;2022-08-04T14:48:09;32.40;97.90
20384;DHT22;46458;50.966;7.002;2022-08-04T14:50:40;32.70;97.80
20384;DHT22;46458;50.966;7.002;2022-08-04T14:53:13;32.70;97.40
20384;DHT22;46458;50.966;7.002;2022-08-04T14:55:44;33.00;97.50
20384;DHT22;46458;50.966;7.002;2022-08-04T14:58:19;32.90;97.00
20384;DHT22;46458;50.966;7.002;2022-08-04T15:00:50;32.90;97.30
20384;DHT22;46458;50.966;7.002;2022-08-04T15:03:21;32.70;97.10
20384;DHT22;46458;50.966;7.002;2022-08-04T15:05:50;32.60;96.80
20384;DHT22;46458;50.966;7.002;2022-08-04T15:08:22;32.60;96.70
20384;DHT22;46458;50.966;7.002;2022-08-04T15:10:53;32.60;96.60
20384;DHT22;46458;50.966;7.002;2022-08-04T15:13:25;32.50;96.60
20384;DHT22;46458;50.966;7.002;2022-08-04T15:15:54;32.50;96.80
20384;DHT22;46458;50.966;7.002;2022-08-04T15:18:24;32.40;96.20
20384;DHT22;46458;50.966;7.002;2022-08-04T15:20:56;32.20;96.40
20384;DHT22;46458;50.966;7.002;2022-08-04T15:23:30;32.10;96.70
20384;DHT22;46458;50.966;7.002;2022-08-04T15:26:04;32.00;96.50
20384;DHT22;46458;50.966;7.002;2022-08-04T15:28:40;31.80;96.60
20384;DHT22;46458;50.966;7.002;2022-08-04T15:31:13;31.70;96.20
20384;DHT22;46458;50.966;7.002;2022-08-04T15:33:43;31.50;96.40
20384;DHT22;46458;50.966;7.002;2022-08-04T15:36:15;31.50;96.50
20384;DHT22;46458;50.966;7.002;2022-08-04T15:39:02;31.50;97.00
20384;DHT22;46458;50.966;7.002;2022-08-04T15:41:40;31.30;97.10
20384;DHT22;46458;50.966;7.002;2022-08-04T15:44:36;31.30;97.30
20384;DHT22;46458;50.966;7.002;2022-08-04T15:47:15;31.30;97.30
20384;DHT22;46458;50.966;7.002;2022-08-04T15:49:44;31.10;97.50
20384;DHT22;46458;50.966;7.002;2022-08-04T15:52:14;30.90;98.00
20384;DHT22;46458;50.966;7.002;2022-08-04T15:54:48;30.80;98.10
20384;DHT22;46458;50.966;7.002;2022-08-04T15:57:56;30.80;98.20
20384;DHT22;46458;50.966;7.002;2022-08-04T16:00:25;30.70;98.40
20384;DHT22;46458;50.966;7.002;2022-08-04T16:02:54;30.70;98.90
20384;DHT22;46458;50.966;7.002;2022-08-04T16:05:44;30.50;99.40
20384;DHT22;46458;50.966;7.002;2022-08-04T16:08:16;30.50;99.60
20384;DHT22;46458;50.966;7.002;2022-08-04T16:10:48;30.50;99.90
20384;DHT22;46458;50.966;7.002;2022-08-04T16:13:19;30.30;99.90
20384;DHT22;46458;50.966;7.002;2022-08-04T16:15:52;30.30;99.90
20384;DHT22;46458;50.966;7.002;2022-08-04T16:18:37;30.20;99.90
20384;DHT22;46458;50.966;7.002;2022-08-04T16:21:22;30.10;99.90
20384;DHT22;46458;50.966;7.002;2022-08-04T16:26:56;30.00;99.90
20384;DHT22;46458;50.966;7.002;2022-08-04T16:29:33;29.90;99.90
20384;DHT22;46458;50.966;7.002;2022-08-04T16:32:20;29.80;99.90
20384;DHT22;46458;50.966;7.002;2022-08-04T16:34:56;29.80;99.90
20384;DHT22;46458;50.966;7.002;2022-08-04T16:37:31;29.70;99.90
20384;DHT22;46458;50.966;7.002;2022-08-04T16:40:29;29.80;99.90
20384;DHT22;46458;50.966;7.002;2022-08-04T16:43:02;29.60;99.90
20384;DHT22;46458;50.966;7.002;2022-08-04T16:45:52;29.70;99.90
20384;DHT22;46458;50.966;7.002;2022-08-04T16:48:24;29.60;99.90
20384;DHT22;46458;50.966;7.002;2022-08-04T16:50:59;29.40;99.90
20384;DHT22;46458;50.966;7.002;2022-08-04T16:53:33;29.40;99.90
20384;DHT22;46458;50.966;7.002;2022-08-04T16:56:03;29.50;99.90
20384;DHT22;46458;50.966;7.002;2022-08-04T16:58:36;29.30;99.90
20384;DHT22;46458;50.966;7.002;2022-08-04T17:01:07;29.30;99.90
20384;DHT22;46458;50.966;7.002;2022-08-04T17:03:37;29.30;99.90
20384;DHT22;46458;50.966;7.002;2022-08-04T17:06:09;29.40;99.90